Time;durP1;ratioP1;P1;durP2;ratioP2;P2;SDS_P1;SDS_P2;PMS_P1;PMS_P2;Temp;Humidity;BMP_temperature;BMP_pressure;BME280_temperature;BME280_humidity;BME280_pressure;Samples;Min_cycle;Max_cycle;Signal;HPM_P1;HPM_P2
2023/09/05 00:00:03;;;;;;;0.50;0.30;;;17.20;99.90;;;;;;5066124;28;20540;-79
2023/09/05 00:02:30;;;;;;;0.50;0.40;;;17.20;99.90;;;;;;5065729;28;20447;-79
2023/09/05 00:04:57;;;;;;;0.50;0.30;;;17.20;99.90;;;;;;5062423;28;20462;-79
2023/09/05 00:07:24;;;;;;;0.50;0.30;;;17.10;99.90;;;;;;5070077;28;20445;-79
2023/09/05 00:09:52;;;;;;;0.50;0.40;;;17.10;99.90;;;;;;5057014;28;20444;-78
2023/09/05 00:12:20;;;;;;;0.50;0.33;;;17.10;99.90;;;;;;5067922;28;20474;-79
2023/09/05 00:14:46;;;;;;;0.50;0.40;;;17.10;99.90;;;;;;5069992;28;20498;-78
2023/09/05 00:17:12;;;;;;;0.50;0.40;;;17.10;99.90;;;;;;5062186;28;20445;-79
2023/09/05 00:19:39;;;;;;;0.50;0.33;;;17.00;99.90;;;;;;5063410;28;20541;-80
2023/09/05 00:22:06;;;;;;;0.50;0.40;;;17.00;99.90;;;;;;5069668;28;20200;-80
2023/09/05 00:24:36;;;;;;;0.50;0.40;;;16.90;99.90;;;;;;5062007;28;20458;-79
2023/09/05 00:27:07;;;;;;;0.50;0.40;;;16.90;99.90;;;;;;5054670;28;20450;-76
2023/09/05 00:29:34;;;;;;;0.50;0.40;;;16.90;99.90;;;;;;5061748;28;20443;-79
2023/09/05 00:32:02;;;;;;;0.50;0.30;;;16.80;99.90;;;;;;5065165;28;20474;-79
2023/09/05 00:34:29;;;;;;;0.50;0.40;;;16.80;99.90;;;;;;5065104;28;20457;-80
2023/09/05 00:36:56;;;;;;;0.50;0.30;;;16.70;99.90;;;;;;5062419;28;20450;-80
2023/09/05 00:39:25;;;;;;;0.50;0.40;;;16.70;99.90;;;;;;5062469;28;20449;-79
2023/09/05 00:41:51;;;;;;;0.50;0.30;;;16.70;99.90;;;;;;5061642;28;20812;-79
2023/09/05 00:44:20;;;;;;;0.50;0.40;;;16.70;99.90;;;;;;5061064;28;20463;-79
2023/09/05 00:46:47;;;;;;;0.50;0.40;;;16.70;99.90;;;;;;5061591;28;20440;-79
2023/09/05 00:49:15;;;;;;;0.50;0.30;;;16.60;99.90;;;;;;5053943;28;20853;-79
2023/09/05 00:51:45;;;;;;;0.50;0.30;;;16.60;99.90;;;;;;5062474;28;20477;-78
2023/09/05 00:54:13;;;;;;;0.50;0.40;;;16.60;99.90;;;;;;5065371;28;20461;-79
2023/09/05 00:56:40;;;;;;;0.50;0.30;;;16.60;99.90;;;;;;5064774;28;20472;-79
2023/09/05 00:59:07;;;;;;;0.50;0.40;;;16.50;99.90;;;;;;5069028;28;20443;-77
2023/09/05 01:01:35;;;;;;;0.50;0.40;;;16.50;99.90;;;;;;5061716;28;20446;-80
2023/09/05 01:04:02;;;;;;;0.50;0.40;;;16.40;99.90;;;;;;5053676;28;20828;-80
2023/09/05 01:06:37;;;;;;;0.50;0.40;;;16.40;99.90;;;;;;5061828;28;20445;-79
2023/09/05 01:09:13;;;;;;;0.50;0.30;;;16.40;99.90;;;;;;5065874;28;20524;-78
2023/09/05 01:11:41;;;;;;;0.50;0.40;;;16.40;99.90;;;;;;5064866;28;20444;-79
2023/09/05 01:14:08;;;;;;;0.50;0.40;;;16.40;99.90;;;;;;5064467;28;20970;-80
2023/09/05 01:16:42;;;;;;;0.50;0.40;;;16.30;99.90;;;;;;5064758;28;20449;-79
2023/09/05 01:19:12;;;;;;;0.50;0.40;;;16.30;99.90;;;;;;5054811;28;20455;-80
2023/09/05 01:21:46;;;;;;;0.50;0.40;;;16.30;99.90;;;;;;5053904;28;20476;-79
2023/09/05 01:24:19;;;;;;;0.50;0.40;;;16.30;99.90;;;;;;5059511;28;20465;-80
2023/09/05 01:26:47;;;;;;;0.50;0.40;;;16.20;99.90;;;;;;5061724;28;20454;-79
2023/09/05 01:29:18;;;;;;;0.50;0.37;;;16.20;99.90;;;;;;5066758;28;20433;-79
2023/09/05 01:31:46;;;;;;;0.50;0.40;;;16.20;99.90;;;;;;5064759;28;20466;-80
2023/09/05 01:34:12;;;;;;;0.50;0.40;;;16.20;99.90;;;;;;5064677;28;21001;-79
2023/09/05 01:36:39;;;;;;;0.50;0.30;;;16.30;99.90;;;;;;5056164;28;20441;-79
2023/09/05 01:39:06;;;;;;;0.50;0.40;;;16.30;99.90;;;;;;5053572;28;20470;-76
2023/09/05 01:41:34;;;;;;;0.50;0.40;;;16.30;99.90;;;;;;5061389;28;20442;-79
2023/09/05 01:44:01;;;;;;;0.50;0.40;;;16.20;99.90;;;;;;5063789;28;20535;-79
2023/09/05 01:46:28;;;;;;;0.50;0.40;;;16.20;99.90;;;;;;5065863;28;20811;-79
2023/09/05 01:48:55;;;;;;;0.50;0.30;;;16.20;99.90;;;;;;5061162;28;20439;-79
2023/09/05 01:51:21;;;;;;;0.50;0.40;;;16.20;99.90;;;;;;5058922;28;20947;-79
2023/09/05 01:53:48;;;;;;;0.50;0.40;;;16.20;99.90;;;;;;5064310;28;20487;-77
2023/09/05 01:56:15;;;;;;;0.50;0.37;;;16.20;99.90;;;;;;5064976;28;20438;-78
2023/09/05 01:58:43;;;;;;;0.50;0.40;;;16.10;99.90;;;;;;5068178;28;20442;-79
2023/09/05 02:01:09;;;;;;;0.50;0.40;;;16.10;99.90;;;;;;5064924;28;20439;-77
2023/09/05 02:03:36;;;;;;;0.50;0.40;;;16.10;99.90;;;;;;5064853;28;20459;-79
2023/09/05 02:06:03;;;;;;;0.50;0.40;;;16.10;99.90;;;;;;5052288;28;20468;-79
2023/09/05 02:08:30;;;;;;;0.50;0.40;;;16.10;99.90;;;;;;5069492;28;20442;-78
2023/09/05 02:10:57;;;;;;;0.50;0.40;;;16.00;99.90;;;;;;5067289;28;20449;-79
2023/09/05 02:13:23;;;;;;;0.50;0.40;;;16.00;99.90;;;;;;5061289;28;20478;-79
2023/09/05 02:15:51;;;;;;;0.50;0.40;;;16.00;99.90;;;;;;5065739;28;20452;-79
2023/09/05 02:18:18;;;;;;;0.50;0.40;;;16.10;99.90;;;;;;5068095;28;20953;-79
2023/09/05 02:20:45;;;;;;;0.50;0.40;;;16.00;99.90;;;;;;5066463;28;20446;-81
2023/09/05 02:23:12;;;;;;;0.50;0.40;;;16.00;99.90;;;;;;5063549;28;20446;-79
2023/09/05 02:25:39;;;;;;;0.50;0.40;;;16.00;99.90;;;;;;5064607;28;20503;-80
2023/09/05 02:28:06;;;;;;;0.50;0.40;;;16.00;99.90;;;;;;5056363;28;20440;-79
2023/09/05 02:30:33;;;;;;;0.50;0.40;;;15.90;99.90;;;;;;5064788;28;20449;-79
2023/09/05 02:33:01;;;;;;;0.60;0.50;;;16.00;99.90;;;;;;5065864;28;20483;-80
2023/09/05 02:35:28;;;;;;;0.50;0.33;;;15.90;99.90;;;;;;5068042;28;20444;-80
2023/09/05 02:37:55;;;;;;;0.50;0.40;;;15.90;99.90;;;;;;5065159;28;20449;-80
2023/09/05 02:40:22;;;;;;;0.50;0.40;;;15.80;99.90;;;;;;5064324;28;20434;-80
2023/09/05 02:42:49;;;;;;;0.50;0.40;;;15.80;99.90;;;;;;5065039;28;20781;-80
2023/09/05 02:45:16;;;;;;;0.50;0.30;;;15.70;99.90;;;;;;5067416;28;20480;-80
2023/09/05 02:47:43;;;;;;;0.50;0.40;;;15.70;99.90;;;;;;5066806;28;20793;-80
2023/09/05 02:50:11;;;;;;;0.50;0.40;;;15.70;99.90;;;;;;5064264;28;20443;-78
2023/09/05 02:52:38;;;;;;;0.50;0.40;;;15.70;99.90;;;;;;5108165;22;21025;-80
2023/09/05 02:55:06;;;;;;;0.50;0.40;;;15.70;99.90;;;;;;5051219;28;20528;-81
2023/09/05 02:57:32;;;;;;;0.50;0.33;;;15.70;99.90;;;;;;5068091;28;20448;-79
2023/09/05 02:59:59;;;;;;;0.50;0.40;;;15.70;99.90;;;;;;5064051;28;20438;-78
2023/09/05 03:02:26;;;;;;;0.50;0.40;;;15.70;99.90;;;;;;5063359;28;20459;-82
2023/09/05 03:04:53;;;;;;;0.50;0.30;;;15.70;99.90;;;;;;5064292;28;20448;-81
2023/09/05 03:07:22;;;;;;;0.50;0.30;;;15.70;99.90;;;;;;5066443;28;20828;-78
2023/09/05 03:09:51;;;;;;;0.50;0.30;;;15.70;99.90;;;;;;5065417;28;20434;-80
2023/09/05 03:12:17;;;;;;;0.50;0.40;;;15.70;99.90;;;;;;5063427;28;20458;-79
2023/09/05 03:14:44;;;;;;;0.60;0.40;;;15.70;99.90;;;;;;5063809;28;20442;-80
2023/09/05 03:17:11;;;;;;;0.50;0.40;;;15.70;99.90;;;;;;5067702;28;20529;-79
2023/09/05 03:19:39;;;;;;;0.50;0.40;;;15.70;99.90;;;;;;5067979;28;20442;-78
2023/09/05 03:22:06;;;;;;;0.50;0.40;;;15.60;99.90;;;;;;5060177;28;20603;-80
2023/09/05 03:24:35;;;;;;;0.50;0.33;;;15.60;99.90;;;;;;5064860;28;20515;-79
2023/09/05 03:27:04;;;;;;;0.50;0.40;;;15.60;99.90;;;;;;5065132;28;20470;-78
2023/09/05 03:29:31;;;;;;;0.50;0.40;;;15.60;99.90;;;;;;5063643;28;20448;-80
2023/09/05 03:31:58;;;;;;;0.50;0.40;;;15.60;99.90;;;;;;5065915;28;20470;-81
2023/09/05 03:34:25;;;;;;;0.50;0.40;;;15.60;99.90;;;;;;5068901;28;20847;-81
2023/09/05 03:36:51;;;;;;;0.50;0.40;;;15.60;99.90;;;;;;5065090;28;20445;-80
2023/09/05 03:39:18;;;;;;;0.50;0.40;;;15.50;99.90;;;;;;5066974;28;20444;-79
2023/09/05 03:41:46;;;;;;;0.50;0.40;;;15.50;99.90;;;;;;5065839;28;20472;-79
2023/09/05 03:44:16;;;;;;;0.50;0.40;;;15.50;99.90;;;;;;5063066;28;20447;-77
2023/09/05 03:46:43;;;;;;;0.50;0.40;;;15.50;99.90;;;;;;5063063;28;20475;-78
2023/09/05 03:49:10;;;;;;;0.70;0.70;;;15.50;99.90;;;;;;5065557;28;20450;-78
2023/09/05 03:51:37;;;;;;;0.50;0.40;;;15.40;99.90;;;;;;5065253;28;20473;-78
2023/09/05 03:54:04;;;;;;;0.50;0.40;;;15.30;99.90;;;;;;5062179;28;20584;-78
2023/09/05 03:56:30;;;;;;;0.50;0.30;;;15.30;99.90;;;;;;5062367;28;20440;-77
2023/09/05 03:58:59;;;;;;;0.50;0.40;;;15.30;99.90;;;;;;5061806;28;20451;-79
2023/09/05 04:01:26;;;;;;;0.50;0.40;;;15.30;99.90;;;;;;5061258;28;20466;-78
2023/09/05 04:03:52;;;;;;;0.50;0.40;;;15.30;99.90;;;;;;5062041;28;20522;-77
2023/09/05 04:06:19;;;;;;;0.50;0.40;;;15.30;99.90;;;;;;5065375;28;20442;-82
2023/09/05 04:08:46;;;;;;;0.50;0.40;;;15.20;99.90;;;;;;5064861;28;20445;-81
2023/09/05 04:11:12;;;;;;;0.50;0.30;;;15.30;99.90;;;;;;5058591;28;20448;-79
2023/09/05 04:13:39;;;;;;;0.50;0.30;;;15.20;99.90;;;;;;5064470;28;20513;-78
2023/09/05 04:16:07;;;;;;;0.50;0.40;;;15.20;99.90;;;;;;5057496;28;20441;-77
2023/09/05 04:18:35;;;;;;;0.50;0.40;;;15.20;99.90;;;;;;5061134;28;20445;-78
2023/09/05 04:21:02;;;;;;;0.70;0.70;;;15.20;99.90;;;;;;5062500;28;20444;-79
2023/09/05 04:23:29;;;;;;;0.50;0.30;;;15.20;99.90;;;;;;5058070;28;20463;-78
2023/09/05 04:25:57;;;;;;;0.50;0.40;;;15.20;99.90;;;;;;5062638;28;20455;-79
2023/09/05 04:28:25;;;;;;;0.50;0.40;;;15.10;99.90;;;;;;5061370;28;20459;-78
2023/09/05 04:30:55;;;;;;;0.50;0.40;;;15.10;99.90;;;;;;5062365;28;20449;-78
2023/09/05 04:33:24;;;;;;;0.50;0.40;;;15.10;99.90;;;;;;5065893;28;20478;-78
2023/09/05 04:35:51;;;;;;;0.50;0.40;;;15.10;99.90;;;;;;5063707;28;20461;-79
2023/09/05 04:38:18;;;;;;;0.50;0.40;;;15.10;99.90;;;;;;5062481;28;20435;-78
2023/09/05 04:40:45;;;;;;;0.50;0.40;;;15.00;99.90;;;;;;5061829;28;20445;-78
2023/09/05 04:43:11;;;;;;;0.50;0.40;;;15.00;99.90;;;;;;5053514;28;20454;-78
2023/09/05 04:45:38;;;;;;;0.50;0.40;;;15.00;99.90;;;;;;5062902;28;20442;-80
2023/09/05 04:48:05;;;;;;;0.50;0.30;;;15.00;99.90;;;;;;5065441;28;20439;-79
2023/09/05 04:50:34;;;;;;;0.50;0.40;;;15.00;99.90;;;;;;5066546;28;20432;-80
2023/09/05 04:53:00;;;;;;;0.50;0.40;;;15.00;99.90;;;;;;5063210;28;20483;-81
2023/09/05 04:55:27;;;;;;;0.50;0.40;;;15.00;99.90;;;;;;5059853;28;20448;-81
2023/09/05 04:57:54;;;;;;;0.50;0.40;;;15.00;99.90;;;;;;5064766;28;20442;-81
2023/09/05 05:00:23;;;;;;;0.50;0.40;;;14.90;99.90;;;;;;5058447;28;20820;-80
2023/09/05 05:02:50;;;;;;;0.50;0.40;;;14.90;99.90;;;;;;5064520;28;20473;-79
2023/09/05 05:05:17;;;;;;;0.50;0.40;;;14.90;99.90;;;;;;5062491;28;20454;-80
2023/09/05 05:07:45;;;;;;;0.80;0.80;;;14.90;99.90;;;;;;5062523;28;20442;-80
2023/09/05 05:10:13;;;;;;;0.50;0.40;;;14.90;99.90;;;;;;5057995;28;20966;-80
2023/09/05 05:12:40;;;;;;;0.50;0.40;;;14.90;99.90;;;;;;5065425;28;20467;-79
2023/09/05 05:15:08;;;;;;;0.50;0.40;;;14.90;99.90;;;;;;5062544;28;20446;-80
2023/09/05 05:17:34;;;;;;;0.50;0.40;;;14.90;99.90;;;;;;5062596;28;20442;-79
2023/09/05 05:20:04;;;;;;;0.50;0.40;;;15.00;99.90;;;;;;5063482;28;20444;-80
2023/09/05 05:22:31;;;;;;;0.50;0.40;;;15.00;99.90;;;;;;5067871;28;20472;-80
2023/09/05 05:25:00;;;;;;;0.50;0.40;;;15.00;99.90;;;;;;5063044;28;20959;-80
2023/09/05 05:27:26;;;;;;;0.50;0.30;;;15.10;99.90;;;;;;5064983;28;20903;-80
2023/09/05 05:29:53;;;;;;;0.50;0.37;;;15.10;99.90;;;;;;5057405;28;20530;-80
2023/09/05 05:32:20;;;;;;;0.50;0.40;;;15.10;99.90;;;;;;5068797;28;20493;-79
2023/09/05 05:34:48;;;;;;;0.50;0.40;;;15.10;99.90;;;;;;5069088;28;20509;-80
2023/09/05 05:37:16;;;;;;;0.50;0.40;;;15.20;99.90;;;;;;5057736;28;20858;-80
2023/09/05 05:39:43;;;;;;;0.50;0.30;;;15.20;99.90;;;;;;5065691;28;20496;-80
2023/09/05 05:42:11;;;;;;;0.50;0.40;;;15.30;99.90;;;;;;5068643;28;20458;-79
2023/09/05 05:44:39;;;;;;;0.50;0.30;;;15.40;99.90;;;;;;5068686;28;20443;-79
2023/09/05 05:47:06;;;;;;;0.50;0.40;;;15.50;99.90;;;;;;5066671;28;20437;-80
2023/09/05 05:49:33;;;;;;;0.50;0.40;;;15.60;99.90;;;;;;5065677;28;20448;-79
2023/09/05 05:52:00;;;;;;;0.50;0.30;;;15.60;99.90;;;;;;5066420;28;20458;-79
2023/09/05 05:54:28;;;;;;;0.50;0.40;;;15.80;99.90;;;;;;5068959;28;20483;-80
2023/09/05 05:56:56;;;;;;;0.50;0.40;;;15.80;99.90;;;;;;5067746;28;20479;-80
2023/09/05 05:59:25;;;;;;;0.50;0.40;;;16.00;99.90;;;;;;5070741;28;20437;-80
2023/09/05 06:01:52;;;;;;;0.50;0.40;;;16.10;99.90;;;;;;5069173;28;20582;-80
2023/09/05 06:04:20;;;;;;;0.50;0.30;;;16.30;99.90;;;;;;5068052;28;20465;-79
2023/09/05 06:06:49;;;;;;;0.50;0.30;;;16.50;99.90;;;;;;5068754;28;20444;-80
2023/09/05 06:09:18;;;;;;;0.50;0.40;;;16.80;99.90;;;;;;5056715;28;20498;-79
2023/09/05 06:11:45;;;;;;;0.50;0.40;;;17.10;99.90;;;;;;5065189;28;20454;-80
2023/09/05 06:14:12;;;;;;;0.50;0.30;;;17.50;99.90;;;;;;5068173;28;20474;-80
2023/09/05 06:16:40;;;;;;;0.50;0.40;;;17.90;99.90;;;;;;5077329;28;20448;-80
2023/09/05 06:19:08;;;;;;;0.50;0.30;;;18.30;99.90;;;;;;5066245;28;20824;-80
2023/09/05 06:21:35;;;;;;;0.50;0.30;;;18.70;99.90;;;;;;5065257;28;21004;-80
2023/09/05 06:24:02;;;;;;;0.50;0.30;;;19.20;99.90;;;;;;5065672;28;20440;-80
2023/09/05 06:26:28;;;;;;;0.50;0.30;;;19.70;99.90;;;;;;5068659;28;20435;-81
2023/09/05 06:28:55;;;;;;;0.50;0.30;;;20.30;99.90;;;;;;5066437;28;20449;-78
2023/09/05 06:31:22;;;;;;;0.50;0.40;;;20.90;99.90;;;;;;5062686;28;20468;-80
2023/09/05 06:33:51;;;;;;;1.90;1.80;;;21.70;99.90;;;;;;5064528;28;20480;-80
2023/09/05 06:36:17;;;;;;;1.40;1.07;;;22.70;99.90;;;;;;5054174;28;20466;-78
2023/09/05 06:38:44;;;;;;;0.60;0.50;;;23.40;99.90;;;;;;5062396;28;20437;-77
2023/09/05 06:41:12;;;;;;;0.50;0.30;;;23.70;99.90;;;;;;5066578;28;20441;-78
2023/09/05 06:43:39;;;;;;;0.50;0.40;;;24.30;99.90;;;;;;5064274;28;20465;-78
2023/09/05 06:46:07;;;;;;;0.70;0.70;;;24.50;99.90;;;;;;5063195;28;20927;-78
2023/09/05 06:48:35;;;;;;;0.50;0.50;;;25.10;99.90;;;;;;5062152;28;20446;-78
2023/09/05 06:51:03;;;;;;;0.50;0.30;;;25.60;99.90;;;;;;5061851;28;20473;-78
2023/09/05 06:53:30;;;;;;;0.50;0.40;;;26.10;99.90;;;;;;5062893;28;20464;-78
2023/09/05 06:55:57;;;;;;;0.50;0.30;;;26.60;99.90;;;;;;5061977;28;20443;-78
2023/09/05 06:58:25;;;;;;;0.50;0.50;;;27.20;99.90;;;;;;5062088;28;20470;-78
2023/09/05 07:00:54;;;;;;;0.50;0.30;;;27.80;99.90;;;;;;5062346;28;20449;-78
2023/09/05 07:03:22;;;;;;;0.50;0.30;;;27.90;99.90;;;;;;5054673;28;20460;-77
2023/09/05 07:05:48;;;;;;;0.50;0.40;;;27.80;98.70;;;;;;5069897;28;20447;-77
2023/09/05 07:08:16;;;;;;;0.50;0.30;;;28.00;99.10;;;;;;5070606;28;20439;-78
2023/09/05 07:10:43;;;;;;;0.50;0.30;;;28.00;97.60;;;;;;5069097;28;20457;-77
2023/09/05 07:13:10;;;;;;;0.50;0.30;;;28.20;95.70;;;;;;5062369;28;20463;-78
2023/09/05 07:15:37;;;;;;;0.50;0.30;;;28.60;95.50;;;;;;5059469;28;20475;-77
2023/09/05 07:18:04;;;;;;;0.50;0.30;;;28.70;94.60;;;;;;5056895;28;20864;-78
2023/09/05 07:20:32;;;;;;;0.50;0.30;;;28.80;94.50;;;;;;5065396;28;21013;-77
2023/09/05 07:22:59;;;;;;;0.80;0.50;;;29.20;94.90;;;;;;5064619;28;20463;-78
2023/09/05 07:25:27;;;;;;;0.50;0.40;;;29.30;94.10;;;;;;5065249;28;20757;-78
2023/09/05 07:27:54;;;;;;;0.50;0.30;;;29.80;92.40;;;;;;5064914;28;20470;-78
2023/09/05 07:30:21;;;;;;;0.50;0.30;;;30.10;94.00;;;;;;5062121;28;20444;-78
2023/09/05 07:32:48;;;;;;;0.50;0.30;;;30.50;93.00;;;;;;5062307;28;20479;-79
2023/09/05 07:35:16;;;;;;;0.50;0.30;;;30.80;90.90;;;;;;5066126;28;21013;-78
2023/09/05 07:37:43;;;;;;;0.50;0.30;;;31.40;90.60;;;;;;5066728;28;20502;-78
2023/09/05 07:40:11;;;;;;;0.50;0.40;;;31.60;90.10;;;;;;5064942;28;20474;-78
2023/09/05 07:42:41;;;;;;;0.50;0.30;;;31.70;86.10;;;;;;5063608;28;20518;-77
2023/09/05 07:45:09;;;;;;;0.50;0.40;;;32.10;85.70;;;;;;5064834;28;20541;-79
2023/09/05 07:47:36;;;;;;;0.50;0.30;;;32.00;85.90;;;;;;5067470;28;20440;-78
2023/09/05 07:50:03;;;;;;;0.50;0.30;;;31.80;85.70;;;;;;5065774;28;20523;-79
2023/09/05 07:52:30;;;;;;;0.50;0.30;;;32.30;85.40;;;;;;5062785;28;20457;-80
2023/09/05 07:54:57;;;;;;;0.60;0.60;;;32.60;83.80;;;;;;5069840;28;20476;-78
2023/09/05 07:57:23;;;;;;;0.50;0.30;;;32.80;86.60;;;;;;5062921;28;20520;-79
2023/09/05 07:59:52;;;;;;;0.50;0.30;;;33.20;81.60;;;;;;5063122;28;20445;-79
2023/09/05 08:02:18;;;;;;;0.70;0.70;;;33.50;80.90;;;;;;5066056;28;20456;-79
2023/09/05 08:04:45;;;;;;;0.43;0.30;;;33.90;74.20;;;;;;5065902;28;20939;-79
2023/09/05 08:07:12;;;;;;;0.40;0.30;;;33.50;73.10;;;;;;5067906;28;20448;-79
2023/09/05 08:09:39;;;;;;;0.50;0.30;;;33.50;75.20;;;;;;5069320;28;20440;-79
2023/09/05 08:12:06;;;;;;;0.50;0.40;;;33.60;70.00;;;;;;5067439;28;20487;-77
2023/09/05 08:14:33;;;;;;;0.80;0.77;;;32.10;70.00;;;;;;5065449;28;20486;-78
2023/09/05 08:17:01;;;;;;;0.50;0.40;;;31.40;71.10;;;;;;5063856;28;20452;-79
2023/09/05 08:19:28;;;;;;;2.27;2.17;;;31.60;70.40;;;;;;5065816;28;20451;-79
2023/09/05 08:21:54;;;;;;;0.70;0.60;;;31.50;73.40;;;;;;5065727;28;20456;-79
2023/09/05 08:24:21;;;;;;;0.50;0.30;;;31.20;70.50;;;;;;5053957;28;20447;-78
2023/09/05 08:26:48;;;;;;;0.50;0.30;;;31.20;71.20;;;;;;5061412;28;20452;-79
2023/09/05 08:29:15;;;;;;;0.50;0.30;;;31.70;73.00;;;;;;5063251;28;20943;-78
2023/09/05 08:31:41;;;;;;;0.50;0.30;;;32.50;71.30;;;;;;5063499;28;20457;-78
2023/09/05 08:34:10;;;;;;;0.60;0.53;;;33.30;67.50;;;;;;5063760;28;20548;-79
2023/09/05 08:36:36;;;;;;;1.13;0.70;;;32.60;64.80;;;;;;5065746;28;20931;-79
2023/09/05 08:39:04;;;;;;;0.50;0.40;;;32.60;67.10;;;;;;5067914;28;20441;-79
2023/09/05 08:41:31;;;;;;;0.50;0.30;;;33.10;68.10;;;;;;5072368;28;21047;-79
2023/09/05 08:43:59;;;;;;;0.50;0.40;;;32.70;66.80;;;;;;5073191;28;20932;-78
2023/09/05 08:46:26;;;;;;;0.50;0.30;;;32.40;66.80;;;;;;5064275;28;20527;-76
2023/09/05 08:48:53;;;;;;;0.50;0.30;;;32.60;65.10;;;;;;5073249;28;20447;-78
2023/09/05 08:51:22;;;;;;;0.50;0.30;;;32.20;66.90;;;;;;5059733;28;20443;-77
2023/09/05 08:53:57;;;;;;;0.60;0.60;;;32.30;65.60;;;;;;5069165;28;20446;-79
2023/09/05 08:56:26;;;;;;;0.47;0.30;;;32.70;64.20;;;;;;5069320;22;20488;-81
2023/09/05 08:58:53;;;;;;;0.50;0.30;;;32.50;66.40;;;;;;5053273;28;20456;-80
2023/09/05 09:01:21;;;;;;;0.50;0.40;;;33.10;67.80;;;;;;5042390;28;20470;-80
2023/09/05 09:03:48;;;;;;;0.43;0.30;;;33.20;63.50;;;;;;5048966;28;20450;-79
2023/09/05 09:06:15;;;;;;;0.50;0.30;;;33.60;64.70;;;;;;5036873;28;20468;-80
2023/09/05 09:08:44;;;;;;;0.50;0.30;;;33.70;64.00;;;;;;5053050;28;20453;-76
2023/09/05 09:11:12;;;;;;;0.53;0.40;;;33.20;62.90;;;;;;5053034;28;20536;-79
2023/09/05 09:13:39;;;;;;;0.50;0.30;;;33.20;63.20;;;;;;5053598;28;20442;-78
2023/09/05 09:16:06;;;;;;;0.50;0.40;;;33.60;63.00;;;;;;5050530;28;20485;-77
2023/09/05 09:18:33;;;;;;;0.63;0.57;;;33.30;63.10;;;;;;5046139;28;20438;-78
2023/09/05 09:21:04;;;;;;;0.50;0.30;;;32.80;61.40;;;;;;5039050;28;20438;-76
2023/09/05 09:23:35;;;;;;;0.50;0.30;;;33.00;64.60;;;;;;5030729;28;20434;-78
2023/09/05 09:26:04;;;;;;;0.50;0.30;;;32.90;62.80;;;;;;5047174;28;20481;-78
2023/09/05 09:28:32;;;;;;;1.90;1.80;;;33.50;62.80;;;;;;5035014;28;20448;-77
2023/09/05 09:31:01;;;;;;;0.50;0.30;;;33.20;61.70;;;;;;5050492;28;20464;-77
2023/09/05 09:33:29;;;;;;;0.50;0.40;;;33.30;63.10;;;;;;5046257;28;20709;-78
2023/09/05 09:36:04;;;;;;;0.50;0.40;;;33.80;60.40;;;;;;5038271;28;20481;-78
2023/09/05 09:38:31;;;;;;;1.27;0.53;;;33.90;61.30;;;;;;5050542;28;20437;-77
2023/09/05 09:41:00;;;;;;;0.50;0.30;;;33.20;59.70;;;;;;5050546;28;20441;-77
2023/09/05 09:43:29;;;;;;;0.40;0.30;;;32.50;64.10;;;;;;5051304;28;20441;-78
2023/09/05 09:45:57;;;;;;;0.50;0.40;;;33.40;61.50;;;;;;5050569;28;20464;-76
2023/09/05 09:48:27;;;;;;;0.50;0.30;;;33.90;61.50;;;;;;5050638;28;20442;-78
2023/09/05 09:50:55;;;;;;;15.67;9.93;;;34.80;61.20;;;;;;5050534;28;20434;-78
2023/09/05 09:53:34;;;;;;;3.60;1.00;;;34.80;58.40;;;;;;5050093;28;20450;-78
2023/09/05 09:56:06;;;;;;;0.40;0.30;;;34.10;60.20;;;;;;5050288;28;20481;-77
2023/09/05 09:58:35;;;;;;;0.40;0.30;;;35.20;64.90;;;;;;5050472;28;20438;-78
2023/09/05 10:01:03;;;;;;;0.40;0.30;;;36.60;62.40;;;;;;5050642;28;20445;-77
2023/09/05 10:03:31;;;;;;;0.40;0.30;;;37.20;57.20;;;;;;5045988;28;20920;-78
2023/09/05 10:06:04;;;;;;;0.40;0.30;;;36.90;56.80;;;;;;5038345;28;20817;-79
2023/09/05 10:08:32;;;;;;;0.40;0.30;;;36.20;56.50;;;;;;5050469;28;20536;-78
2023/09/05 10:11:00;;;;;;;0.40;0.40;;;35.90;57.30;;;;;;5043113;28;20446;-79
2023/09/05 10:13:32;;;;;;;0.50;0.40;;;35.10;57.10;;;;;;5043356;28;20436;-79
2023/09/05 10:16:02;;;;;;;0.50;0.30;;;34.80;57.10;;;;;;5050797;28;20556;-79
2023/09/05 10:18:31;;;;;;;0.50;0.30;;;33.80;58.80;;;;;;5033538;28;20446;-79
2023/09/05 10:21:00;;;;;;;0.50;0.30;;;34.00;58.80;;;;;;5043162;28;20492;-78
2023/09/05 10:23:30;;;;;;;0.50;0.30;;;33.80;58.50;;;;;;5046261;28;20506;-79
2023/09/05 10:25:57;;;;;;;0.50;0.40;;;33.70;62.50;;;;;;5055076;28;20465;-79
2023/09/05 10:28:27;;;;;;;0.40;0.30;;;34.20;57.70;;;;;;5054615;28;20469;-80
2023/09/05 10:31:04;;;;;;;0.40;0.30;;;34.30;59.50;;;;;;5055437;28;20506;-79
2023/09/05 10:33:37;;;;;;;0.47;0.37;;;35.40;57.90;;;;;;5047361;28;20445;-78
2023/09/05 10:36:04;;;;;;;0.50;0.43;;;35.50;56.50;;;;;;5054397;28;20862;-78
2023/09/05 10:38:36;;;;;;;0.40;0.30;;;35.40;57.90;;;;;;5054879;28;20481;-79
2023/09/05 10:41:03;;;;;;;0.40;0.30;;;35.40;56.70;;;;;;5038352;28;20450;-77
2023/09/05 10:43:30;;;;;;;0.40;0.30;;;35.90;57.80;;;;;;5035047;28;20926;-79
2023/09/05 10:45:59;;;;;;;0.40;0.30;;;36.10;56.20;;;;;;5035146;28;20470;-79
2023/09/05 10:48:34;;;;;;;0.40;0.30;;;36.30;56.50;;;;;;5038058;28;20433;-79
2023/09/05 10:51:13;;;;;;;0.40;0.30;;;37.10;57.10;;;;;;5046933;28;20451;-78
2023/09/05 10:53:41;;;;;;;0.50;0.40;;;37.30;54.90;;;;;;5047753;28;20511;-79
2023/09/05 10:56:39;;;;;;;0.50;0.50;;;36.50;54.20;;;;;;5054246;28;20991;-79
2023/09/05 10:59:10;;;;;;;0.40;0.30;;;35.80;55.00;;;;;;5037368;28;20439;-78
2023/09/05 11:01:48;;;;;;;0.40;0.30;;;34.90;57.20;;;;;;5047250;28;20499;-78
2023/09/05 11:04:45;;;;;;;0.60;0.50;;;35.10;57.60;;;;;;5044010;28;20535;-78
2023/09/05 11:07:17;;;;;;;0.50;0.40;;;34.60;57.20;;;;;;5034153;28;20443;-80
2023/09/05 11:09:48;;;;;;;0.40;0.30;;;34.80;57.20;;;;;;5034126;28;20446;-75
2023/09/05 11:12:15;;;;;;;0.40;0.30;;;34.60;57.20;;;;;;5051532;28;20484;-78
2023/09/05 11:14:42;;;;;;;0.40;0.30;;;34.40;57.50;;;;;;5053122;28;20445;-79
2023/09/05 11:17:31;;;;;;;0.50;0.30;;;34.00;59.00;;;;;;5053188;28;20450;-78
2023/09/05 11:20:15;;;;;;;0.50;0.30;;;34.50;58.00;;;;;;5033364;28;20486;-79
2023/09/05 11:23:17;;;;;;;0.40;0.30;;;35.10;59.50;;;;;;5047205;28;20453;-80
2023/09/05 11:26:19;;;;;;;1.43;1.17;;;35.50;57.30;;;;;;5053492;28;20535;-78
2023/09/05 11:29:38;;;;;;;0.40;0.30;;;34.30;56.80;;;;;;5048065;28;20976;-79
2023/09/05 11:32:25;;;;;;;0.50;0.30;;;34.50;59.10;;;;;;5035078;28;20493;-78
2023/09/05 11:35:35;;;;;;;;;;;;;;;;;;;;;
2023/09/05 11:38:32;;;;;;;0.40;0.30;;;35.90;56.10;;;;;;5043770;28;20426;-79
2023/09/05 11:41:48;;;;;;;0.40;0.30;;;35.80;57.20;;;;;;5050342;28;20442;-79
2023/09/05 11:44:52;;;;;;;0.67;0.67;;;35.90;56.70;;;;;;5049231;28;20474;-78
2023/09/05 11:47:21;;;;;;;0.40;0.30;;;35.60;56.90;;;;;;5051998;28;20979;-79
2023/09/05 11:49:48;;;;;;;0.40;0.30;;;36.30;57.80;;;;;;5054053;28;20947;-79
2023/09/05 11:52:16;;;;;;;0.50;0.50;;;36.00;56.00;;;;;;5045161;28;20464;-79
2023/09/05 11:54:47;;;;;;;0.40;0.33;;;36.10;56.20;;;;;;5053322;28;20452;-79
2023/09/05 11:57:14;;;;;;;0.40;0.40;;;36.40;56.40;;;;;;5053024;28;20453;-79
2023/09/05 11:59:41;;;;;;;0.40;0.30;;;35.20;56.50;;;;;;5053491;28;20448;-79
2023/09/05 12:02:09;;;;;;;0.40;0.30;;;35.30;57.60;;;;;;5045427;28;20446;-77
2023/09/05 12:04:37;;;;;;;0.40;0.30;;;35.90;57.90;;;;;;5041574;28;20446;-77
2023/09/05 12:07:06;;;;;;;0.40;0.30;;;36.40;56.80;;;;;;5049768;28;20449;-78
2023/09/05 12:09:33;;;;;;;0.50;0.40;;;37.00;56.30;;;;;;5042058;28;20446;-78
2023/09/05 12:12:12;;;;;;;0.40;0.30;;;37.30;54.20;;;;;;5049103;28;20441;-79
2023/09/05 12:14:49;;;;;;;0.40;0.30;;;37.40;54.20;;;;;;5046611;28;20441;-79
2023/09/05 12:17:17;;;;;;;0.40;0.30;;;38.10;55.50;;;;;;5052450;28;20480;-78
2023/09/05 12:19:45;;;;;;;0.40;0.30;;;38.40;55.00;;;;;;5047413;28;20441;-78
2023/09/05 12:22:20;;;;;;;0.40;0.30;;;38.80;55.20;;;;;;5036983;28;20537;-79
2023/09/05 12:24:47;;;;;;;0.60;0.50;;;38.10;52.70;;;;;;5047946;28;20444;-77
2023/09/05 12:27:25;;;;;;;0.40;0.30;;;37.20;54.00;;;;;;5050846;28;20444;-80
2023/09/05 12:29:55;;;;;;;0.40;0.30;;;37.00;55.70;;;;;;5053919;28;20443;-79
2023/09/05 12:32:23;;;;;;;0.40;0.40;;;37.00;56.10;;;;;;5041812;28;20473;-78
2023/09/05 12:34:49;;;;;;;0.40;0.30;;;37.30;54.90;;;;;;5045713;28;20511;-78
2023/09/05 12:37:16;;;;;;;0.40;0.30;;;37.50;55.20;;;;;;5054165;28;20473;-78
2023/09/05 12:39:43;;;;;;;0.40;0.30;;;38.10;55.90;;;;;;5045165;28;20446;-79
2023/09/05 12:42:10;;;;;;;0.40;0.30;;;37.90;53.90;;;;;;5043986;28;20446;-78
2023/09/05 12:44:38;;;;;;;0.40;0.30;;;38.50;54.60;;;;;;5045217;28;20476;-79
2023/09/05 12:47:05;;;;;;;0.50;0.40;;;39.00;54.40;;;;;;5052244;28;21131;-79
2023/09/05 12:49:32;;;;;;;0.40;0.30;;;38.80;52.10;;;;;;5043142;28;20903;-78
2023/09/05 12:51:59;;;;;;;0.40;0.40;;;37.60;54.40;;;;;;5051157;28;20438;-79
2023/09/05 12:54:27;;;;;;;0.40;0.30;;;37.20;53.60;;;;;;5041131;28;20515;-79
2023/09/05 12:56:54;;;;;;;0.40;0.30;;;37.30;54.50;;;;;;5046602;28;20488;-80